Time;durP1;ratioP1;P1;durP2;ratioP2;P2;SDS_P1;SDS_P2;PMS_P1;PMS_P2;Temp;Humidity;BMP_temperature;BMP_pressure;BME280_temperature;BME280_humidity;BME280_pressure;Samples;Min_cycle;Max_cycle;Signal;HPM_P1;HPM_P2
2022/08/20 00:01:24;;;;;;;16.52;12.50;;;18.80;99.90;;;;;;5024965;28;20037;-76
2022/08/20 00:03:50;;;;;;;15.70;12.88;;;18.80;99.90;;;;;;5028177;28;20081;-77
2022/08/20 00:06:18;;;;;;;15.53;12.03;;;18.80;99.90;;;;;;5043072;28;20083;-77
2022/08/20 00:08:44;;;;;;;18.13;13.77;;;18.80;99.90;;;;;;5025502;28;20025;-77
2022/08/20 00:11:12;;;;;;;18.33;13.30;;;18.80;99.90;;;;;;5042049;28;20033;-76
2022/08/20 00:13:44;;;;;;;18.45;12.70;;;18.80;99.90;;;;;;4999469;28;20136;-76
2022/08/20 00:16:11;;;;;;;18.08;13.10;;;18.80;99.90;;;;;;5019051;28;20071;-76
2022/08/20 00:18:37;;;;;;;22.42;13.13;;;18.80;99.90;;;;;;5057002;28;20429;-76
2022/08/20 00:21:07;;;;;;;16.53;12.43;;;18.80;99.90;;;;;;5021151;28;20025;-76
2022/08/20 00:23:36;;;;;;;15.35;11.80;;;18.80;99.90;;;;;;5036883;28;20021;-76
2022/08/20 00:26:03;;;;;;;16.75;12.55;;;18.80;99.90;;;;;;5037700;28;20021;-76
2022/08/20 00:28:29;;;;;;;19.15;13.00;;;18.80;99.90;;;;;;5037495;28;20349;-75
2022/08/20 00:30:54;;;;;;;17.90;12.93;;;18.80;99.90;;;;;;5042003;28;20041;-76
2022/08/20 00:33:22;;;;;;;16.63;12.17;;;18.80;99.90;;;;;;5040619;28;20032;-76
2022/08/20 00:35:52;;;;;;;18.15;12.25;;;18.80;99.90;;;;;;5024548;28;20092;-76
2022/08/20 00:38:18;;;;;;;16.88;11.45;;;18.70;99.90;;;;;;5024434;28;20029;-78
2022/08/20 00:40:55;;;;;;;19.98;13.10;;;18.70;99.90;;;;;;5008050;28;20247;-77
2022/08/20 00:43:29;;;;;;;16.58;12.73;;;18.70;99.90;;;;;;5023995;28;20025;-76
2022/08/20 00:45:56;;;;;;;17.83;12.75;;;18.70;99.90;;;;;;5040299;28;20220;-76
2022/08/20 00:48:27;;;;;;;16.25;11.98;;;18.80;99.90;;;;;;5040628;28;20049;-76
2022/08/20 00:50:56;;;;;;;15.45;11.60;;;18.80;99.90;;;;;;5033844;28;20034;-76
2022/08/20 00:53:22;;;;;;;19.45;12.88;;;18.70;99.90;;;;;;5039004;28;20048;-76
2022/08/20 00:55:48;;;;;;;18.93;14.20;;;18.70;99.90;;;;;;5023916;28;20033;-76
2022/08/20 00:58:14;;;;;;;18.70;13.53;;;18.70;99.90;;;;;;5040245;28;20343;-76
2022/08/20 01:00:43;;;;;;;19.47;13.43;;;18.70;99.90;;;;;;5023341;28;20021;-76
2022/08/20 01:03:12;;;;;;;19.48;14.65;;;18.70;99.90;;;;;;5017428;28;20037;-76
2022/08/20 01:05:48;;;;;;;19.92;14.65;;;18.70;99.90;;;;;;5024032;28;20017;-76
2022/08/20 01:08:16;;;;;;;24.65;15.55;;;18.70;99.90;;;;;;5040195;28;20013;-76
2022/08/20 01:10:47;;;;;;;20.60;14.38;;;18.70;99.90;;;;;;5040225;28;20036;-76
2022/08/20 01:13:16;;;;;;;20.13;14.13;;;18.70;99.90;;;;;;5041847;28;20021;-76
2022/08/20 01:15:44;;;;;;;21.52;14.43;;;18.70;99.90;;;;;;5040946;28;20021;-76
2022/08/20 01:18:18;;;;;;;20.38;13.98;;;18.70;99.90;;;;;;5041545;28;20071;-76
2022/08/20 01:20:48;;;;;;;20.85;14.18;;;18.60;99.90;;;;;;5025436;28;20040;-76
2022/08/20 01:23:59;;;;;;;19.02;13.85;;;18.70;99.90;;;;;;5056364;28;20320;-76
2022/08/20 01:26:31;;;;;;;19.30;14.48;;;18.60;99.90;;;;;;5054360;28;20316;-76
2022/08/20 01:29:02;;;;;;;24.77;16.05;;;18.60;99.90;;;;;;5057311;28;20048;-76
2022/08/20 01:31:33;;;;;;;23.48;16.80;;;18.60;99.90;;;;;;5057169;28;20029;-76
2022/08/20 01:34:02;;;;;;;20.98;15.25;;;18.60;99.90;;;;;;5057438;28;20029;-76
2022/08/20 01:36:37;;;;;;;19.70;14.82;;;18.60;99.90;;;;;;5057732;28;20063;-76
2022/08/20 01:39:06;;;;;;;22.52;15.32;;;18.60;99.90;;;;;;5050749;23;20071;-73
2022/08/20 01:42:06;;;;;;;20.63;14.70;;;18.60;99.90;;;;;;5041342;28;20025;-73
2022/08/20 01:44:32;;;;;;;20.75;14.52;;;18.60;99.90;;;;;;5040392;28;20028;-74
2022/08/20 01:47:30;;;;;;;20.80;15.00;;;18.60;99.90;;;;;;5040271;28;20024;-74
2022/08/20 01:49:59;;;;;;;26.17;15.70;;;18.60;99.90;;;;;;5001970;28;20022;-74
2022/08/20 01:52:54;;;;;;;21.75;15.68;;;18.60;99.90;;;;;;5000472;28;20019;-73
2022/08/20 01:55:20;;;;;;;20.33;14.07;;;18.60;99.90;;;;;;4985805;28;20018;-74
2022/08/20 01:57:47;;;;;;;27.30;15.27;;;18.60;99.90;;;;;;5002605;28;20217;-73
2022/08/20 02:00:14;;;;;;;22.80;14.90;;;18.60;99.90;;;;;;4985546;28;20034;-73
2022/08/20 02:02:41;;;;;;;19.75;14.50;;;18.60;99.90;;;;;;4969249;28;20038;-75
2022/08/20 02:05:07;;;;;;;;;;;18.60;99.90;;;;;;4984200;28;20022;-75
2022/08/20 02:07:33;;;;;;;21.58;14.50;;;18.60;99.90;;;;;;5021684;28;19973;-75
2022/08/20 02:09:59;;;;;;;21.30;14.67;;;18.60;99.90;;;;;;5021106;28;20052;-74
2022/08/20 02:12:24;;;;;;;20.20;14.73;;;18.60;99.90;;;;;;5022037;28;20213;-74
2022/08/20 02:14:52;;;;;;;19.97;13.87;;;18.60;99.90;;;;;;5020834;28;20018;-74
2022/08/20 02:17:21;;;;;;;22.27;15.52;;;18.60;99.90;;;;;;5021017;28;20026;-74
2022/08/20 02:20:05;;;;;;;21.13;15.75;;;18.60;99.90;;;;;;5021083;28;20029;-73
2022/08/20 02:22:54;;;;;;;21.38;15.80;;;18.60;99.90;;;;;;5021524;28;20034;-73
2022/08/20 02:25:24;;;;;;;20.17;15.23;;;18.60;99.90;;;;;;5021134;28;20317;-73
2022/08/20 02:27:50;;;;;;;20.90;15.38;;;18.60;99.90;;;;;;5021921;28;20037;-73
2022/08/20 02:30:33;;;;;;;21.98;15.85;;;18.60;99.90;;;;;;5019733;28;20032;-73
2022/08/20 02:33:00;;;;;;;22.85;15.77;;;18.60;99.90;;;;;;5021685;28;20034;-74
2022/08/20 02:35:26;;;;;;;24.63;16.15;;;18.60;99.90;;;;;;5023692;28;20017;-74
2022/08/20 02:37:52;;;;;;;23.00;15.93;;;18.60;99.90;;;;;;5024042;28;20108;-74
2022/08/20 02:40:20;;;;;;;23.13;16.83;;;18.60;99.90;;;;;;5024427;28;20033;-74
2022/08/20 02:42:46;;;;;;;22.40;15.70;;;18.60;99.90;;;;;;5024254;28;20093;-73
2022/08/20 02:45:15;;;;;;;22.92;15.77;;;18.60;99.90;;;;;;5024354;28;20420;-73
2022/08/20 02:47:43;;;;;;;20.90;14.50;;;18.60;99.90;;;;;;5024592;28;20030;-74
2022/08/20 02:50:12;;;;;;;21.77;14.90;;;18.60;99.90;;;;;;5025290;28;20030;-74
2022/08/20 02:52:38;;;;;;;21.20;15.70;;;18.60;99.90;;;;;;5024266;28;20021;-74
2022/08/20 02:55:04;;;;;;;20.40;14.63;;;18.60;99.90;;;;;;5023541;28;20037;-74
2022/08/20 02:57:32;;;;;;;22.23;16.50;;;18.60;99.90;;;;;;5007715;28;20025;-74
2022/08/20 02:59:57;;;;;;;21.88;15.52;;;18.60;99.90;;;;;;5025041;28;20037;-73
2022/08/20 03:02:23;;;;;;;20.87;15.17;;;18.60;99.90;;;;;;5023925;28;20259;-74
2022/08/20 03:04:49;;;;;;;23.17;16.57;;;18.60;99.90;;;;;;5023658;28;20685;-74
2022/08/20 03:07:15;;;;;;;24.00;16.33;;;18.60;99.90;;;;;;5024879;28;20014;-73
2022/08/20 03:09:41;;;;;;;23.73;17.00;;;18.60;99.90;;;;;;5023720;28;20128;-73
2022/08/20 03:12:06;;;;;;;23.47;15.90;;;18.60;99.90;;;;;;5023844;28;20025;-73
2022/08/20 03:14:33;;;;;;;23.10;16.60;;;18.60;99.90;;;;;;5023522;28;20052;-73
2022/08/20 03:16:59;;;;;;;18.73;14.52;;;18.60;99.90;;;;;;5022737;28;20049;-73
2022/08/20 03:19:25;;;;;;;22.07;16.70;;;18.60;99.90;;;;;;5024680;28;20080;-73
2022/08/20 03:21:51;;;;;;;24.67;16.00;;;18.60;99.90;;;;;;5007273;28;20037;-73
2022/08/20 03:24:17;;;;;;;20.90;15.40;;;18.60;99.90;;;;;;5023275;28;20022;-74
2022/08/20 03:26:42;;;;;;;22.97;15.20;;;18.60;99.90;;;;;;5007132;28;20029;-73
2022/08/20 03:29:08;;;;;;;23.57;15.13;;;18.60;99.90;;;;;;5024515;28;20349;-73
2022/08/20 03:31:34;;;;;;;21.17;14.93;;;18.60;99.90;;;;;;5023155;28;20317;-74
2022/08/20 03:34:00;;;;;;;24.07;16.83;;;18.50;99.90;;;;;;5023067;28;20021;-74
2022/08/20 03:36:26;;;;;;;25.40;17.10;;;18.50;99.90;;;;;;5024466;28;20049;-74
2022/08/20 03:38:52;;;;;;;24.10;16.80;;;18.40;99.90;;;;;;5022518;28;20653;-74
2022/08/20 03:41:18;;;;;;;23.53;15.93;;;18.40;99.90;;;;;;5024402;28;20046;-74
2022/08/20 03:43:44;;;;;;;25.93;16.73;;;18.40;99.90;;;;;;5023056;28;20026;-73
2022/08/20 03:46:10;;;;;;;24.33;15.40;;;18.40;99.90;;;;;;5022042;28;20093;-73
2022/08/20 03:48:36;;;;;;;20.90;15.77;;;18.40;99.90;;;;;;5024174;28;20118;-74
2022/08/20 03:51:02;;;;;;;25.50;16.47;;;18.40;99.90;;;;;;5023214;28;20026;-74
2022/08/20 03:53:30;;;;;;;24.13;16.50;;;18.40;99.90;;;;;;5005644;28;20034;-74
2022/08/20 03:55:59;;;;;;;25.48;16.05;;;18.30;99.90;;;;;;5007036;28;20038;-74
2022/08/20 03:58:29;;;;;;;24.10;16.42;;;18.30;99.90;;;;;;5022826;28;20029;-74
2022/08/20 04:00:55;;;;;;;23.33;16.70;;;18.30;99.90;;;;;;5022835;28;20033;-73
2022/08/20 04:03:21;;;;;;;21.50;14.77;;;18.30;99.90;;;;;;5039041;28;20014;-73
2022/08/20 04:05:47;;;;;;;22.65;16.02;;;18.20;99.90;;;;;;5021570;28;20264;-73
2022/08/20 04:08:17;;;;;;;22.45;15.98;;;18.30;99.90;;;;;;5003049;28;20036;-73
2022/08/20 04:10:44;;;;;;;24.65;16.77;;;18.20;99.90;;;;;;4987270;28;20106;-73
2022/08/20 04:13:10;;;;;;;23.88;16.83;;;18.30;99.90;;;;;;4986598;28;20033;-73
2022/08/20 04:15:36;;;;;;;23.60;15.57;;;18.30;99.90;;;;;;5003878;28;20216;-73
2022/08/20 04:18:05;;;;;;;22.33;14.97;;;18.30;99.90;;;;;;4970642;28;20261;-73
2022/08/20 04:20:31;;;;;;;20.30;15.13;;;18.30;99.90;;;;;;4987045;28;20049;-74
2022/08/20 04:22:56;;;;;;;19.60;14.17;;;18.30;99.90;;;;;;5003779;28;20026;-74
2022/08/20 04:25:22;;;;;;;26.40;16.63;;;18.40;99.90;;;;;;5003717;28;20270;-74
2022/08/20 04:27:51;;;;;;;24.77;17.40;;;18.30;99.90;;;;;;4986487;28;20041;-75
2022/08/20 04:30:18;;;;;;;21.35;14.98;;;18.30;99.90;;;;;;4987000;28;20049;-74
2022/08/20 04:32:44;;;;;;;23.55;16.58;;;18.30;99.90;;;;;;4970063;28;20261;-74
2022/08/20 04:35:13;;;;;;;23.17;14.67;;;18.30;99.90;;;;;;5002663;28;20022;-74
2022/08/20 04:37:39;;;;;;;22.48;16.38;;;18.30;99.90;;;;;;5002452;28;20453;-73
2022/08/20 04:42:56;;;;;;;22.92;16.17;;;18.30;99.90;;;;;;4989155;28;20033;-74
2022/08/20 04:45:23;;;;;;;22.33;15.63;;;18.30;99.90;;;;;;4993995;28;20054;-74
2022/08/20 04:47:49;;;;;;;20.77;14.63;;;18.30;99.90;;;;;;5021935;28;20371;-74
2022/08/20 04:50:15;;;;;;;21.38;15.23;;;18.30;99.90;;;;;;5021627;28;20085;-74
2022/08/20 04:52:41;;;;;;;23.02;16.55;;;18.30;99.90;;;;;;5021853;28;20084;-74
2022/08/20 04:55:08;;;;;;;21.77;14.80;;;18.40;99.90;;;;;;5022207;28;20394;-73
2022/08/20 04:57:37;;;;;;;20.25;13.65;;;18.30;99.90;;;;;;5005315;28;20256;-74
2022/08/20 05:00:09;;;;;;;20.45;15.20;;;18.30;99.90;;;;;;5021879;28;20030;-75
2022/08/20 05:02:36;;;;;;;21.83;15.25;;;18.40;99.90;;;;;;5021871;28;20025;-72
2022/08/20 05:05:04;;;;;;;20.25;14.95;;;18.40;99.90;;;;;;5021629;28;20336;-73
2022/08/20 05:07:29;;;;;;;21.23;15.88;;;18.30;99.90;;;;;;5021547;28;20025;-74
2022/08/20 05:09:55;;;;;;;18.27;14.00;;;18.30;99.90;;;;;;5021489;28;20030;-74
2022/08/20 05:12:21;;;;;;;20.47;14.83;;;18.30;99.90;;;;;;5021698;28;20033;-74
2022/08/20 05:14:47;;;;;;;20.73;14.40;;;18.30;99.90;;;;;;5022507;28;20026;-74
2022/08/20 05:17:15;;;;;;;20.93;15.13;;;18.30;99.90;;;;;;5037943;28;20292;-75
2022/08/20 05:19:41;;;;;;;21.58;15.18;;;18.30;99.90;;;;;;5020923;28;20245;-75
2022/08/20 05:22:07;;;;;;;20.63;13.90;;;18.40;99.90;;;;;;5022633;28;20030;-74
2022/08/20 05:24:33;;;;;;;19.40;14.87;;;18.40;99.90;;;;;;5021035;28;20638;-74
2022/08/20 05:26:59;;;;;;;22.13;14.23;;;18.40;99.90;;;;;;5022580;28;20023;-74
2022/08/20 05:29:26;;;;;;;20.35;14.25;;;18.40;99.90;;;;;;5005000;28;20049;-74
2022/08/20 05:31:55;;;;;;;19.75;13.75;;;18.50;99.90;;;;;;5019539;28;20045;-74
2022/08/20 05:34:21;;;;;;;16.95;13.43;;;18.50;99.90;;;;;;5022030;28;20022;-73
2022/08/20 05:36:48;;;;;;;20.60;15.30;;;18.60;99.90;;;;;;5021345;28;20045;-73
2022/08/20 05:39:14;;;;;;;18.65;14.18;;;18.60;99.90;;;;;;5021090;28;20032;-73
2022/08/20 05:41:40;;;;;;;20.67;14.90;;;18.60;99.90;;;;;;5022662;28;20030;-73
2022/08/20 05:44:09;;;;;;;20.17;14.87;;;18.60;99.90;;;;;;5022298;28;20025;-73
2022/08/20 05:46:38;;;;;;;19.70;14.20;;;18.60;99.90;;;;;;5005524;28;20340;-73
2022/08/20 05:49:04;;;;;;;18.15;14.10;;;18.60;99.90;;;;;;5001463;28;20034;-73
2022/08/20 05:51:31;;;;;;;19.08;14.20;;;18.60;99.90;;;;;;5018051;28;20113;-73
2022/08/20 05:53:56;;;;;;;20.98;13.85;;;18.60;99.90;;;;;;5019103;28;20034;-73
2022/08/20 05:56:22;;;;;;;20.03;13.93;;;18.60;99.90;;;;;;5022203;28;20443;-73
2022/08/20 05:58:48;;;;;;;20.13;14.90;;;18.70;99.90;;;;;;5022307;28;20018;-73
2022/08/20 06:01:14;;;;;;;20.10;14.70;;;18.70;99.90;;;;;;5022441;28;20085;-73
2022/08/20 06:06:23;;;;;;;20.70;15.05;;;18.70;99.90;;;;;;5022349;28;20032;-72
2022/08/20 06:08:49;;;;;;;20.87;15.70;;;18.70;99.90;;;;;;5021898;28;20064;-72
2022/08/20 06:11:15;;;;;;;23.57;15.50;;;18.70;99.90;;;;;;5026319;28;20025;-73
2022/08/20 06:13:40;;;;;;;21.53;16.60;;;18.70;99.90;;;;;;5026007;28;20029;-73
2022/08/20 06:16:06;;;;;;;20.57;15.77;;;18.70;99.90;;;;;;5025079;28;20032;-73
2022/08/20 06:18:32;;;;;;;25.23;17.00;;;18.70;99.90;;;;;;5025722;28;20029;-73
2022/08/20 06:20:58;;;;;;;23.13;17.47;;;18.80;99.90;;;;;;5024144;28;20030;-73
2022/08/20 06:23:24;;;;;;;24.87;18.17;;;18.80;99.90;;;;;;5024327;28;20026;-74
2022/08/20 06:25:50;;;;;;;24.33;18.63;;;18.80;99.90;;;;;;4999875;28;20026;-73
2022/08/20 06:28:16;;;;;;;22.65;16.83;;;18.80;99.90;;;;;;5005303;28;20333;-74
2022/08/20 06:30:42;;;;;;;22.42;16.05;;;18.70;99.90;;;;;;5020033;28;20025;-73
2022/08/20 06:33:08;;;;;;;23.60;17.43;;;18.80;99.90;;;;;;5025847;28;20036;-74
2022/08/20 06:35:36;;;;;;;21.53;16.67;;;18.80;99.90;;;;;;5024814;28;20030;-73
2022/08/20 06:38:04;;;;;;;23.48;17.60;;;18.90;99.90;;;;;;5024841;28;20061;-74
2022/08/20 06:40:29;;;;;;;25.20;19.70;;;19.00;99.90;;;;;;5024744;28;20021;-73
2022/08/20 06:42:55;;;;;;;25.90;20.37;;;19.10;99.90;;;;;;5025689;28;20072;-74
2022/08/20 06:45:28;;;;;;;26.05;19.15;;;19.10;99.90;;;;;;5024636;28;20064;-73
2022/08/20 06:47:56;;;;;;;28.35;21.75;;;19.10;99.90;;;;;;5019417;28;20089;-74
2022/08/20 06:50:32;;;;;;;26.40;19.80;;;19.10;99.90;;;;;;5023685;28;20068;-73
2022/08/20 06:52:58;;;;;;;25.50;19.35;;;19.10;99.90;;;;;;5008562;28;20045;-74
2022/08/20 06:55:24;;;;;;;26.27;18.85;;;19.30;99.90;;;;;;5023591;28;20026;-73
2022/08/20 06:58:02;;;;;;;25.57;21.07;;;19.30;99.90;;;;;;5024332;28;20060;-73
2022/08/20 07:00:34;;;;;;;25.95;19.80;;;19.40;99.90;;;;;;5024930;28;20310;-70
2022/08/20 07:03:00;;;;;;;26.33;18.15;;;19.40;99.90;;;;;;5024098;28;20026;-73
2022/08/20 07:05:31;;;;;;;30.42;20.92;;;19.50;99.90;;;;;;5023364;28;20332;-73
2022/08/20 07:07:58;;;;;;;25.90;19.52;;;19.60;99.90;;;;;;5021203;28;20280;-73
2022/08/20 07:10:24;;;;;;;27.08;20.15;;;19.60;99.90;;;;;;5023211;28;20030;-73
2022/08/20 07:12:50;;;;;;;25.67;20.53;;;19.70;99.90;;;;;;5023503;28;20025;-74
2022/08/20 07:15:16;;;;;;;24.85;19.45;;;19.80;99.90;;;;;;5024190;28;20022;-73
2022/08/20 07:17:42;;;;;;;23.90;19.27;;;19.90;99.90;;;;;;5023272;28;20328;-74
2022/08/20 07:20:11;;;;;;;24.90;18.60;;;19.90;99.90;;;;;;5008172;28;20022;-73
2022/08/20 07:22:37;;;;;;;24.23;17.77;;;19.90;99.90;;;;;;5006071;28;20022;-73
2022/08/20 07:25:08;;;;;;;22.33;16.90;;;20.00;99.90;;;;;;5023063;28;20089;-74
2022/08/20 07:27:33;;;;;;;23.20;16.88;;;20.00;99.90;;;;;;5013996;28;20029;-74
2022/08/20 07:32:44;;;;;;;23.95;16.75;;;20.10;99.90;;;;;;5023866;28;20092;-74
2022/08/20 07:35:14;;;;;;;21.33;17.10;;;20.20;99.90;;;;;;5024004;28;20025;-74
2022/08/20 07:37:43;;;;;;;21.00;16.70;;;20.30;99.90;;;;;;5074535;23;20041;-75
2022/08/20 07:40:13;;;;;;;23.38;17.85;;;20.40;99.90;;;;;;4968528;28;20030;-78
2022/08/20 07:42:39;;;;;;;25.65;16.67;;;20.40;99.90;;;;;;5003688;28;20021;-78
2022/08/20 07:45:09;;;;;;;24.48;16.60;;;20.50;99.90;;;;;;4996518;28;20021;-76
2022/08/20 07:47:41;;;;;;;18.55;15.95;;;20.60;99.90;;;;;;4938158;28;20038;-78
2022/08/20 07:50:12;;;;;;;18.50;15.15;;;20.60;99.90;;;;;;4984321;28;20038;-76
2022/08/20 07:52:38;;;;;;;20.40;15.75;;;20.60;99.90;;;;;;4984237;28;20119;-77
2022/08/20 07:55:11;;;;;;;17.40;13.50;;;20.70;99.90;;;;;;4985445;28;20395;-75
2022/08/20 07:57:37;;;;;;;19.48;16.00;;;20.70;99.90;;;;;;4987532;28;20230;-76
2022/08/20 08:00:06;;;;;;;20.30;14.98;;;20.70;99.90;;;;;;4971222;28;20069;-75
2022/08/20 08:02:32;;;;;;;20.23;16.13;;;20.80;99.90;;;;;;4972005;28;20030;-76
2022/08/20 08:04:58;;;;;;;17.13;13.93;;;20.70;99.90;;;;;;5003621;28;20026;-76
2022/08/20 08:07:25;;;;;;;17.75;15.00;;;20.70;99.90;;;;;;4970533;28;20138;-77
2022/08/20 08:09:51;;;;;;;17.85;13.45;;;20.70;99.90;;;;;;4955345;28;20317;-75
2022/08/20 08:12:16;;;;;;;17.70;13.90;;;20.70;99.90;;;;;;4986031;28;20069;-75
2022/08/20 08:14:43;;;;;;;19.67;14.47;;;20.70;99.90;;;;;;5003493;28;20273;-76
2022/08/20 08:17:10;;;;;;;17.60;14.45;;;20.70;99.90;;;;;;4986676;28;20041;-75
2022/08/20 08:19:42;;;;;;;19.10;14.63;;;20.70;99.90;;;;;;5003890;28;20026;-77
2022/08/20 08:22:11;;;;;;;17.90;15.18;;;20.70;99.90;;;;;;4955624;28;20329;-74
2022/08/20 08:24:37;;;;;;;20.45;15.20;;;20.80;99.90;;;;;;4986878;28;20022;-77
2022/08/20 08:27:03;;;;;;;20.65;15.07;;;20.80;99.90;;;;;;5004063;28;20422;-77
2022/08/20 08:29:29;;;;;;;17.83;15.37;;;20.90;99.90;;;;;;4970434;28;20033;-77
2022/08/20 08:31:55;;;;;;;18.27;14.83;;;20.90;99.90;;;;;;4970539;28;20266;-77
2022/08/20 08:34:24;;;;;;;19.77;15.82;;;20.80;99.90;;;;;;4986943;28;20089;-77
2022/08/20 08:36:51;;;;;;;22.45;16.00;;;20.80;99.90;;;;;;5004039;28;20030;-77
2022/08/20 08:39:17;;;;;;;19.13;13.90;;;20.80;99.90;;;;;;4986574;28;20026;-77
2022/08/20 08:41:48;;;;;;;21.50;16.40;;;20.90;99.90;;;;;;4986450;28;20030;-77
2022/08/20 08:44:22;;;;;;;16.10;13.75;;;20.80;99.90;;;;;;4986634;28;20167;-77
2022/08/20 08:46:55;;;;;;;19.23;14.88;;;20.90;99.90;;;;;;4986443;28;20022;-77
2022/08/20 08:49:28;;;;;;;18.70;14.50;;;20.90;99.90;;;;;;4987310;28;20048;-77
2022/08/20 08:51:56;;;;;;;19.75;15.50;;;20.90;99.90;;;;;;4970967;28;20030;-77
2022/08/20 08:54:24;;;;;;;19.33;16.10;;;20.90;99.90;;;;;;4986378;28;20052;-77
2022/08/20 08:56:50;;;;;;;23.05;15.48;;;20.90;99.90;;;;;;4986230;28;20249;-76
2022/08/20 08:59:17;;;;;;;18.85;15.82;;;20.90;99.90;;;;;;4986353;28;20311;-76
2022/08/20 09:01:55;;;;;;;21.30;15.07;;;20.80;99.90;;;;;;4986675;28;20026;-77
2022/08/20 09:04:21;;;;;;;18.63;15.27;;;20.90;99.90;;;;;;4986284;28;20022;-78
2022/08/20 09:06:48;;;;;;;19.77;15.13;;;20.90;99.90;;;;;;4987373;28;20360;-78
2022/08/20 09:09:26;;;;;;;18.63;15.50;;;20.90;99.90;;;;;;4969834;28;20045;-77
2022/08/20 09:11:54;;;;;;;18.42;15.27;;;20.90;99.90;;;;;;4978413;28;20064;-77
2022/08/20 09:14:23;;;;;;;20.25;15.57;;;21.00;99.90;;;;;;4987528;28;20034;-76
2022/08/20 09:16:50;;;;;;;22.42;15.20;;;21.00;99.90;;;;;;4956292;28;20089;-78
2022/08/20 09:19:16;;;;;;;17.05;14.40;;;21.00;99.90;;;;;;4985456;28;20029;-78
2022/08/20 09:21:42;;;;;;;19.20;14.73;;;21.10;99.90;;;;;;4982158;28;20034;-78
2022/08/20 09:24:08;;;;;;;18.60;15.50;;;21.10;99.90;;;;;;4983990;28;20026;-77
2022/08/20 09:26:33;;;;;;;18.17;14.80;;;21.10;99.90;;;;;;4985108;28;20041;-78
2022/08/20 09:28:59;;;;;;;19.33;15.70;;;21.20;99.90;;;;;;4985264;28;20321;-78
2022/08/20 09:31:25;;;;;;;20.70;16.13;;;21.20;99.90;;;;;;4967547;28;20068;-78
2022/08/20 09:33:51;;;;;;;18.70;15.18;;;21.20;99.90;;;;;;4985916;28;20089;-76
2022/08/20 09:36:17;;;;;;;20.45;15.00;;;21.20;99.90;;;;;;4969315;28;20033;-77
2022/08/20 09:38:43;;;;;;;20.52;14.63;;;21.20;99.90;;;;;;4977836;28;20495;-77
2022/08/20 09:41:09;;;;;;;20.23;15.20;;;21.20;99.90;;;;;;4967856;28;20038;-77
2022/08/20 09:43:35;;;;;;;18.83;14.20;;;21.20;99.90;;;;;;5000998;28;20025;-77
2022/08/20 09:46:00;;;;;;;21.33;16.17;;;21.30;99.90;;;;;;5002857;28;20462;-77
2022/08/20 09:48:26;;;;;;;19.17;14.13;;;21.30;99.90;;;;;;5002640;28;20321;-77
2022/08/20 09:50:52;;;;;;;20.80;14.17;;;21.40;99.90;;;;;;5002912;28;20306;-77
2022/08/20 09:53:18;;;;;;;16.13;12.73;;;21.40;99.90;;;;;;4969112;28;20030;-78
2022/08/20 09:55:47;;;;;;;16.13;12.63;;;21.50;99.90;;;;;;4969326;28;20049;-78
2022/08/20 09:58:50;;;;;;;16.85;12.60;;;21.50;99.90;;;;;;4984670;28;20022;-77
2022/08/20 10:01:18;;;;;;;17.00;12.98;;;21.70;99.90;;;;;;4961637;29;20027;-77
2022/08/20 10:03:46;;;;;;;17.60;13.48;;;21.80;99.90;;;;;;4981857;28;20049;-77
2022/08/20 10:06:13;;;;;;;19.52;13.93;;;21.90;99.90;;;;;;4985666;28;20100;-77
2022/08/20 10:08:39;;;;;;;16.42;13.85;;;21.90;99.90;;;;;;4985253;28;20023;-77
2022/08/20 10:11:05;;;;;;;23.00;13.48;;;21.90;99.90;;;;;;5001914;28;20348;-77
2022/08/20 10:13:31;;;;;;;18.67;15.03;;;21.90;99.90;;;;;;4985468;28;20265;-77
2022/08/20 10:15:57;;;;;;;15.67;13.00;;;21.90;99.90;;;;;;4984513;28;20022;-77
2022/08/20 10:18:22;;;;;;;18.00;12.97;;;21.90;99.90;;;;;;4985192;28;20356;-77
2022/08/20 10:20:48;;;;;;;19.47;14.53;;;21.90;99.90;;;;;;4985217;28;20094;-77
2022/08/20 10:23:14;;;;;;;15.33;11.60;;;21.80;99.90;;;;;;4984801;28;20030;-77
2022/08/20 10:25:41;;;;;;;17.20;14.17;;;21.90;99.90;;;;;;4984379;28;20029;-77
2022/08/20 10:28:07;;;;;;;18.40;13.35;;;21.90;99.90;;;;;;4984806;28;20325;-77
2022/08/20 10:30:33;;;;;;;23.20;15.27;;;21.90;99.90;;;;;;4984918;28;20073;-77
2022/08/20 10:32:59;;;;;;;22.13;13.48;;;21.90;99.90;;;;;;4984584;28;20030;-78
2022/08/20 10:35:25;;;;;;;17.37;13.63;;;21.90;99.90;;;;;;4969176;28;20034;-77
2022/08/20 10:37:50;;;;;;;17.57;12.70;;;21.90;99.90;;;;;;4984937;28;20046;-76
2022/08/20 10:40:16;;;;;;;19.98;13.75;;;22.00;99.90;;;;;;5002054;28;20034;-77
2022/08/20 10:42:43;;;;;;;22.10;15.33;;;22.00;99.90;;;;;;4984342;28;20019;-77
2022/08/20 10:45:13;;;;;;;20.20;14.93;;;22.00;99.90;;;;;;4999868;28;20040;-77
2022/08/20 10:47:39;;;;;;;17.77;13.18;;;22.10;99.90;;;;;;4968838;28;20030;-77
2022/08/20 10:50:08;;;;;;;20.43;13.83;;;22.10;99.90;;;;;;4984827;28;20030;-78
2022/08/20 10:52:34;;;;;;;15.70;12.95;;;22.10;99.90;;;;;;4958069;28;20086;-76
2022/08/20 10:55:00;;;;;;;19.03;13.50;;;22.20;99.90;;;;;;4985207;28;20030;-76
2022/08/20 10:57:28;;;;;;;18.33;13.00;;;22.20;99.90;;;;;;4995903;28;20092;-76
2022/08/20 10:59:56;;;;;;;16.77;11.50;;;22.30;99.90;;;;;;5005744;28;20214;-76
2022/08/20 11:02:22;;;;;;;18.38;12.80;;;22.40;99.90;;;;;;5003863;28;20018;-76
2022/08/20 11:04:48;;;;;;;18.33;12.95;;;22.50;99.90;;;;;;4988142;28;20354;-76
2022/08/20 11:07:37;;;;;;;22.45;15.48;;;22.60;99.90;;;;;;4971934;28;20030;-77
2022/08/20 11:10:05;;;;;;;17.65;14.30;;;22.70;99.90;;;;;;4984756;28;20049;-75
2022/08/20 11:12:30;;;;;;;21.73;14.27;;;22.80;99.90;;;;;;4985813;28;20030;-77
2022/08/20 11:14:56;;;;;;;24.27;14.73;;;23.00;99.90;;;;;;4993168;28;20090;-76
2022/08/20 11:17:26;;;;;;;24.67;13.83;;;23.20;99.90;;;;;;4974875;28;20030;-79
2022/08/20 11:19:52;;;;;;;19.90;14.30;;;23.40;99.90;;;;;;4989028;28;20029;-73
2022/08/20 11:22:18;;;;;;;20.75;14.90;;;23.70;99.90;;;;;;5005401;28;20093;-75
2022/08/20 11:24:43;;;;;;;15.57;12.95;;;24.00;99.90;;;;;;4988106;28;20044;-72
2022/08/20 11:27:09;;;;;;;16.77;13.40;;;24.20;99.90;;;;;;5005248;28;20217;-76
2022/08/20 11:29:36;;;;;;;17.80;13.93;;;24.30;99.90;;;;;;5005123;28;20337;-77
2022/08/20 11:32:03;;;;;;;15.35;11.98;;;24.40;99.90;;;;;;4987816;28;20292;-71
2022/08/20 11:34:28;;;;;;;15.60;12.57;;;24.40;99.90;;;;;;4970918;28;20038;-71
2022/08/20 11:36:55;;;;;;;18.93;12.50;;;24.40;99.90;;;;;;4999623;28;20134;-72
2022/08/20 11:39:21;;;;;;;19.30;14.15;;;24.40;99.90;;;;;;4986820;28;20289;-72
2022/08/20 11:41:47;;;;;;;21.03;13.17;;;24.40;99.90;;;;;;5004673;28;20018;-73
2022/08/20 11:44:12;;;;;;;19.15;14.90;;;24.20;99.90;;;;;;4986772;28;20022;-72
2022/08/20 11:46:38;;;;;;;25.15;14.45;;;24.10;99.90;;;;;;4996453;28;20084;-73
2022/08/20 11:49:04;;;;;;;20.02;14.95;;;23.90;99.90;;;;;;5003697;28;20041;-72
2022/08/20 11:51:30;;;;;;;23.13;14.88;;;23.80;99.90;;;;;;5004533;28;20329;-73
2022/08/20 11:53:56;;;;;;;21.60;14.77;;;23.80;99.90;;;;;;5003480;28;20026;-73
2022/08/20 11:56:21;;;;;;;17.38;13.45;;;23.80;99.90;;;;;;5004486;28;20072;-72
2022/08/20 11:58:47;;;;;;;21.27;13.83;;;23.90;99.90;;;;;;5003131;28;20030;-73
2022/08/20 12:01:13;;;;;;;16.20;13.05;;;24.00;99.90;;;;;;4978696;28;20023;-73
2022/08/20 12:03:39;;;;;;;19.38;13.13;;;24.20;99.90;;;;;;4984690;28;20068;-72
2022/08/20 12:06:05;;;;;;;17.37;13.80;;;24.30;99.90;;;;;;4984161;28;20049;-72
2022/08/20 12:08:30;;;;;;;19.45;13.35;;;24.60;99.90;;;;;;4984247;28;20334;-73
2022/08/20 12:10:58;;;;;;;22.15;13.70;;;24.70;99.90;;;;;;4967635;28;20030;-73
2022/08/20 12:13:25;;;;;;;18.40;12.75;;;25.00;99.90;;;;;;4969548;28;20296;-73
2022/08/20 12:15:52;;;;;;;17.60;13.15;;;25.10;99.90;;;;;;4986945;28;20030;-73
2022/08/20 12:18:18;;;;;;;;;;;25.10;99.90;;;;;;4987322;28;20018;-73
2022/08/20 12:20:43;;;;;;;20.17;13.50;;;25.10;99.90;;;;;;5000198;28;20655;-77
2022/08/20 12:23:09;;;;;;;17.17;12.15;;;25.00;99.90;;;;;;4976793;28;20034;-76
2022/08/20 12:25:35;;;;;;;17.20;11.95;;;24.80;99.90;;;;;;5003274;28;20026;-75
2022/08/20 12:28:03;;;;;;;16.95;12.02;;;24.60;99.90;;;;;;5002851;28;20030;-77
2022/08/20 12:30:28;;;;;;;19.40;13.65;;;24.40;99.90;;;;;;4982438;28;20045;-78
2022/08/20 12:32:54;;;;;;;20.63;14.23;;;24.30;99.90;;;;;;4985816;28;20094;-79
2022/08/20 12:35:20;;;;;;;17.37;12.70;;;24.20;99.90;;;;;;5002216;28;20296;-76
2022/08/20 12:37:46;;;;;;;14.05;11.18;;;24.10;99.90;;;;;;4995127;28;20042;-79
2022/08/20 12:40:24;;;;;;;16.88;10.90;;;24.10;99.90;;;;;;4970009;28;20141;-77